Time;durP1;ratioP1;P1;durP2;ratioP2;P2;SDS_P1;SDS_P2;PMS_P1;PMS_P2;Temp;Humidity;BMP_temperature;BMP_pressure;BME280_temperature;BME280_humidity;BME280_pressure;Samples;Min_cycle;Max_cycle;Signal;HPM_P1;HPM_P2
2023/07/13 00:00:32;;;;;;;7.18;2.17;;;17.30;83.50;;;;;;5017910;28;20041;-78
2023/07/13 00:02:58;;;;;;;7.93;2.10;;;17.30;83.40;;;;;;5034080;28;20050;-79
2023/07/13 00:05:23;;;;;;;7.32;2.05;;;17.30;83.30;;;;;;5001059;28;20675;-79
2023/07/13 00:07:51;;;;;;;6.88;1.85;;;17.30;83.10;;;;;;5000769;28;20041;-80
2023/07/13 00:10:17;;;;;;;5.28;1.42;;;17.30;82.90;;;;;;5017654;28;20048;-79
2023/07/13 00:12:44;;;;;;;4.57;1.42;;;17.20;82.60;;;;;;5017313;28;20041;-77
2023/07/13 00:15:16;;;;;;;7.07;1.65;;;17.20;82.40;;;;;;5033712;28;20056;-79
2023/07/13 00:17:44;;;;;;;4.18;1.48;;;17.20;82.10;;;;;;5017277;28;20049;-80
2023/07/13 00:20:11;;;;;;;7.45;1.90;;;17.10;82.20;;;;;;5033727;28;20053;-80
2023/07/13 00:22:37;;;;;;;5.60;1.60;;;17.10;82.00;;;;;;5033932;28;20045;-80
2023/07/13 00:25:03;;;;;;;5.03;1.30;;;17.00;81.90;;;;;;5034247;28;20037;-80
2023/07/13 00:27:31;;;;;;;5.18;1.55;;;17.00;82.10;;;;;;5033586;28;20057;-81
2023/07/13 00:29:58;;;;;;;6.32;1.20;;;17.00;82.00;;;;;;4985440;28;20052;-78
2023/07/13 00:32:27;;;;;;;4.57;1.77;;;17.00;82.20;;;;;;5000877;28;20052;-79
2023/07/13 00:34:52;;;;;;;5.80;1.50;;;17.00;82.00;;;;;;5034215;28;20433;-79
2023/07/13 00:37:19;;;;;;;7.20;1.63;;;17.00;81.90;;;;;;5017196;28;20076;-79
2023/07/13 00:39:44;;;;;;;4.70;1.20;;;17.00;81.90;;;;;;5017620;28;20088;-79
2023/07/13 00:42:11;;;;;;;4.63;1.33;;;17.00;81.70;;;;;;5034240;28;20466;-78
2023/07/13 00:44:37;;;;;;;4.82;1.40;;;17.00;81.70;;;;;;5018919;28;20038;-80
2023/07/13 00:47:02;;;;;;;3.63;1.25;;;17.00;81.80;;;;;;5001393;28;20124;-80
2023/07/13 00:49:32;;;;;;;3.80;0.80;;;17.00;81.70;;;;;;5017075;28;20099;-79
2023/07/13 00:52:02;;;;;;;3.70;0.80;;;17.00;81.50;;;;;;5051726;28;20045;-81
2023/07/13 00:54:33;;;;;;;4.93;1.00;;;17.00;81.30;;;;;;5053242;28;20535;-78
2023/07/13 00:57:02;;;;;;;5.07;1.02;;;17.00;80.80;;;;;;5053441;28;20131;-80
2023/07/13 00:59:29;;;;;;;4.50;1.45;;;17.00;80.60;;;;;;5054069;28;20386;-78
2023/07/13 01:01:55;;;;;;;6.55;1.40;;;17.00;80.80;;;;;;5020541;28;20485;-79
2023/07/13 01:04:23;;;;;;;3.42;1.17;;;17.00;80.50;;;;;;5003765;28;20041;-78
2023/07/13 01:06:49;;;;;;;3.38;1.08;;;17.00;80.60;;;;;;5053312;28;20134;-80
2023/07/13 01:09:15;;;;;;;2.25;1.05;;;17.00;80.70;;;;;;5053174;28;20079;-78
2023/07/13 01:11:42;;;;;;;3.22;1.20;;;17.00;80.60;;;;;;5036587;28;20103;-79
2023/07/13 01:14:08;;;;;;;6.05;1.50;;;17.00;81.30;;;;;;5036648;28;20382;-82
2023/07/13 01:16:36;;;;;;;2.63;0.80;;;16.90;81.50;;;;;;5052684;28;20033;-80
2023/07/13 01:19:08;;;;;;;4.47;1.15;;;16.90;81.40;;;;;;5019173;28;20120;-81
2023/07/13 01:21:34;;;;;;;3.78;1.08;;;16.90;81.40;;;;;;5052340;28;20037;-80
2023/07/13 01:24:02;;;;;;;4.60;1.10;;;16.90;81.90;;;;;;5052485;28;20037;-81
2023/07/13 01:26:27;;;;;;;3.67;1.02;;;16.80;82.10;;;;;;5035759;28;20044;-80
2023/07/13 01:28:53;;;;;;;6.10;1.55;;;16.70;82.40;;;;;;5019222;28;20057;-81
2023/07/13 01:31:19;;;;;;;6.95;1.20;;;16.70;82.90;;;;;;5052291;28;20033;-79
2023/07/13 01:33:45;;;;;;;4.15;1.20;;;16.70;82.80;;;;;;5035932;28;20098;-79
2023/07/13 01:36:11;;;;;;;6.00;1.40;;;16.70;83.30;;;;;;5019168;28;20045;-80
2023/07/13 01:38:38;;;;;;;9.40;2.30;;;16.60;83.70;;;;;;5052502;28;20044;-82
2023/07/13 01:41:04;;;;;;;3.88;1.25;;;16.60;83.20;;;;;;5019319;28;20554;-80
2023/07/13 01:43:30;;;;;;;5.72;1.50;;;16.60;83.50;;;;;;5035583;28;20037;-80
2023/07/13 01:45:55;;;;;;;7.47;2.10;;;16.50;83.70;;;;;;5052043;28;20405;-79
2023/07/13 01:48:21;;;;;;;10.23;2.20;;;16.50;85.00;;;;;;5019115;28;20040;-81
2023/07/13 01:50:47;;;;;;;4.78;2.13;;;16.50;84.50;;;;;;5035442;28;20041;-81
2023/07/13 01:53:13;;;;;;;4.32;1.42;;;16.50;84.10;;;;;;5051932;28;20694;-81
2023/07/13 01:55:39;;;;;;;11.07;2.38;;;16.50;84.20;;;;;;5052166;28;20041;-78
2023/07/13 01:58:05;;;;;;;4.18;1.40;;;16.50;84.30;;;;;;5052237;28;20036;-79
2023/07/13 02:00:31;;;;;;;6.18;1.92;;;16.50;84.30;;;;;;5052057;28;20444;-78
2023/07/13 02:02:57;;;;;;;7.28;1.75;;;16.50;84.80;;;;;;5051856;28;20045;-81
2023/07/13 02:05:23;;;;;;;6.00;1.83;;;16.50;85.80;;;;;;5051787;28;20037;-79
2023/07/13 02:07:49;;;;;;;8.48;1.92;;;16.50;85.60;;;;;;5018889;28;20091;-80
2023/07/13 02:10:15;;;;;;;5.03;1.85;;;16.40;85.90;;;;;;5051678;28;20047;-79
2023/07/13 02:12:41;;;;;;;5.70;1.95;;;16.40;85.70;;;;;;5035265;28;20128;-78
2023/07/13 02:15:07;;;;;;;4.47;1.65;;;16.30;86.30;;;;;;5035067;28;20044;-81
2023/07/13 02:17:35;;;;;;;6.35;1.95;;;16.40;85.90;;;;;;5035524;28;20110;-79
2023/07/13 02:20:00;;;;;;;5.10;1.90;;;16.30;86.30;;;;;;5051636;28;20489;-79
2023/07/13 02:22:26;;;;;;;5.90;1.88;;;16.30;86.50;;;;;;5051501;28;20040;-79
2023/07/13 02:24:52;;;;;;;4.82;2.00;;;16.20;86.90;;;;;;5051758;28;20041;-79
2023/07/13 02:27:18;;;;;;;7.35;1.88;;;16.20;87.40;;;;;;5035081;28;20521;-80
2023/07/13 02:29:44;;;;;;;6.47;1.77;;;16.10;87.60;;;;;;5035351;28;20088;-80
2023/07/13 02:32:10;;;;;;;8.50;2.22;;;16.20;87.10;;;;;;5021686;28;20462;-79
2023/07/13 02:34:36;;;;;;;8.77;2.67;;;16.00;88.30;;;;;;5022587;28;20039;-78
2023/07/13 02:37:01;;;;;;;9.98;2.47;;;16.10;87.20;;;;;;5039118;28;20051;-79
2023/07/13 02:39:28;;;;;;;9.43;3.05;;;16.10;88.30;;;;;;5039060;28;20393;-79
2023/07/13 02:41:54;;;;;;;13.43;2.92;;;16.00;88.30;;;;;;5038809;28;20041;-81
2023/07/13 02:44:19;;;;;;;10.10;2.67;;;16.00;88.40;;;;;;5022421;28;20090;-79
2023/07/13 02:46:45;;;;;;;11.85;3.22;;;16.10;88.30;;;;;;5055573;28;20041;-78
2023/07/13 02:49:11;;;;;;;10.07;2.83;;;16.10;88.20;;;;;;5022314;28;20500;-77
2023/07/13 02:51:36;;;;;;;8.52;2.60;;;16.20;88.00;;;;;;5022477;28;20041;-79
2023/07/13 02:54:03;;;;;;;7.57;2.80;;;16.20;88.00;;;;;;5038799;28;20033;-79
2023/07/13 02:56:31;;;;;;;12.07;3.03;;;16.20;88.70;;;;;;5055178;28;20048;-78
2023/07/13 02:58:57;;;;;;;10.43;3.45;;;16.20;88.50;;;;;;5055549;28;20040;-77
2023/07/13 03:01:22;;;;;;;9.00;3.30;;;16.20;89.40;;;;;;5055294;28;20079;-78
2023/07/13 03:03:49;;;;;;;16.35;4.03;;;16.20;88.90;;;;;;5055099;28;20076;-78
2023/07/13 03:06:16;;;;;;;13.85;4.43;;;16.30;89.00;;;;;;5055390;28;20124;-78
2023/07/13 03:08:43;;;;;;;10.82;4.15;;;16.20;89.20;;;;;;5055647;28;20170;-77
2023/07/13 03:11:13;;;;;;;10.00;3.17;;;16.30;89.40;;;;;;5055110;28;20043;-78
2023/07/13 03:13:42;;;;;;;13.75;3.40;;;16.40;89.30;;;;;;5055391;28;20452;-79
2023/07/13 03:16:09;;;;;;;14.85;3.90;;;16.30;89.40;;;;;;5055198;28;20052;-79
2023/07/13 03:18:36;;;;;;;15.82;4.32;;;16.40;89.60;;;;;;5055324;28;20043;-77
2023/07/13 03:21:03;;;;;;;8.85;3.70;;;16.30;89.80;;;;;;5059245;28;20097;-77
2023/07/13 03:23:28;;;;;;;17.45;4.35;;;16.30;89.80;;;;;;5060473;28;20037;-77
2023/07/13 03:26:21;;;;;;;11.13;4.32;;;16.20;90.30;;;;;;5037704;28;20120;-77
2023/07/13 03:28:47;;;;;;;19.65;5.80;;;16.20;90.30;;;;;;5053315;28;20127;-78
2023/07/13 03:31:18;;;;;;;11.85;3.95;;;16.10;90.20;;;;;;5055559;28;20500;-77
2023/07/13 03:33:44;;;;;;;14.45;4.40;;;16.20;90.10;;;;;;5039846;28;20056;-78
2023/07/13 03:36:16;;;;;;;13.77;3.67;;;16.10;90.70;;;;;;5038784;28;20099;-76
2023/07/13 03:38:41;;;;;;;13.85;5.05;;;16.10;90.30;;;;;;5055638;28;20040;-77
2023/07/13 03:41:07;;;;;;;12.13;4.90;;;16.10;90.50;;;;;;5038635;28;20498;-80
2023/07/13 03:43:33;;;;;;;11.52;4.22;;;16.00;90.60;;;;;;5057311;28;20048;-76
2023/07/13 03:45:58;;;;;;;13.32;4.35;;;16.00;90.30;;;;;;5075414;28;20055;-77
2023/07/13 03:48:24;;;;;;;9.60;4.45;;;16.00;90.40;;;;;;5059533;28;20037;-77
2023/07/13 03:50:50;;;;;;;13.63;4.15;;;16.00;90.40;;;;;;5059677;28;20045;-77
2023/07/13 03:53:16;;;;;;;10.85;4.05;;;16.00;90.30;;;;;;5077216;28;20036;-77
2023/07/13 03:55:42;;;;;;;18.35;4.95;;;16.00;90.40;;;;;;5043931;28;20071;-76
2023/07/13 03:58:30;;;;;;;11.35;4.70;;;16.00;90.30;;;;;;5043325;28;20049;-77
2023/07/13 04:00:57;;;;;;;12.20;4.35;;;16.00;90.30;;;;;;5059572;28;20040;-79
2023/07/13 04:03:23;;;;;;;15.18;4.95;;;16.00;90.20;;;;;;5033888;28;20095;-77
2023/07/13 04:05:49;;;;;;;10.93;4.63;;;16.00;90.40;;;;;;5072095;28;20041;-76
2023/07/13 04:08:15;;;;;;;16.83;4.80;;;16.00;90.30;;;;;;5075825;28;20039;-76
2023/07/13 04:10:41;;;;;;;15.63;5.10;;;16.00;90.30;;;;;;5059214;28;20033;-78
2023/07/13 04:13:07;;;;;;;16.63;4.65;;;16.00;90.40;;;;;;5073127;28;20020;-79
2023/07/13 04:15:33;;;;;;;12.65;4.65;;;15.90;90.50;;;;;;5057261;28;20032;-77
2023/07/13 04:17:59;;;;;;;11.52;4.20;;;15.80;90.60;;;;;;5054949;28;20392;-79
2023/07/13 04:20:25;;;;;;;12.60;4.82;;;15.80;90.60;;;;;;5054027;28;20059;-77
2023/07/13 04:22:53;;;;;;;13.15;4.95;;;15.80;90.60;;;;;;5057565;28;20049;-77
2023/07/13 04:25:20;;;;;;;11.00;5.50;;;15.80;90.90;;;;;;5054890;28;20037;-77
2023/07/13 04:27:45;;;;;;;8.52;4.32;;;15.80;91.10;;;;;;5053439;28;20049;-78
2023/07/13 04:30:11;;;;;;;8.70;4.05;;;15.80;90.90;;;;;;5029312;28;20414;-77
2023/07/13 04:32:37;;;;;;;13.48;4.82;;;15.80;91.00;;;;;;5053860;28;20053;-79
2023/07/13 04:35:04;;;;;;;11.95;4.63;;;15.80;91.30;;;;;;5036912;28;20114;-78
2023/07/13 04:37:29;;;;;;;12.38;4.68;;;15.80;91.00;;;;;;5021011;28;20447;-79
2023/07/13 04:39:56;;;;;;;9.10;4.00;;;15.80;91.10;;;;;;5053315;28;20052;-79
2023/07/13 04:42:22;;;;;;;11.77;4.32;;;15.90;91.20;;;;;;5036720;28;20086;-77
2023/07/13 04:44:51;;;;;;;12.00;4.15;;;15.90;91.10;;;;;;5036868;28;20040;-77
2023/07/13 04:47:17;;;;;;;10.90;4.47;;;15.90;91.10;;;;;;5053367;28;20041;-78
2023/07/13 04:49:44;;;;;;;10.32;4.78;;;16.00;90.90;;;;;;5036817;28;20474;-78
2023/07/13 04:52:10;;;;;;;12.32;4.57;;;16.00;90.80;;;;;;5036520;28;20040;-78
2023/07/13 04:54:37;;;;;;;10.65;4.60;;;16.00;91.00;;;;;;5036240;28;20099;-78
2023/07/13 04:57:06;;;;;;;9.32;3.75;;;16.00;90.80;;;;;;5053257;28;20056;-78
2023/07/13 04:59:33;;;;;;;6.82;3.53;;;16.10;90.90;;;;;;5024632;28;20045;-78
2023/07/13 05:01:58;;;;;;;11.43;4.20;;;16.20;90.80;;;;;;5032985;28;20045;-78
2023/07/13 05:04:24;;;;;;;16.05;5.15;;;16.20;90.60;;;;;;5000155;28;20095;-80
2023/07/13 05:06:50;;;;;;;14.55;3.85;;;16.30;90.50;;;;;;5032782;28;20448;-80
2023/07/13 05:09:16;;;;;;;9.43;3.90;;;16.30;90.40;;;;;;5000074;28;20034;-77
2023/07/13 05:11:43;;;;;;;12.43;3.58;;;16.40;90.20;;;;;;5000154;28;20048;-80
2023/07/13 05:14:09;;;;;;;8.75;3.72;;;16.50;89.90;;;;;;5000056;28;20124;-77
2023/07/13 05:16:35;;;;;;;10.25;3.88;;;16.50;89.90;;;;;;4999975;28;20048;-76
2023/07/13 05:19:01;;;;;;;10.00;3.55;;;16.60;89.90;;;;;;5016506;28;20037;-78
2023/07/13 05:21:27;;;;;;;9.10;3.60;;;16.70;89.60;;;;;;5032661;28;20038;-80
2023/07/13 05:23:53;;;;;;;6.55;2.78;;;16.70;89.20;;;;;;4999775;28;20045;-79
2023/07/13 05:26:20;;;;;;;9.02;3.83;;;16.80;89.00;;;;;;5016168;28;20128;-80
2023/07/13 05:28:46;;;;;;;8.55;3.72;;;16.90;88.70;;;;;;4999863;28;20085;-80
2023/07/13 05:31:12;;;;;;;7.03;3.53;;;17.00;88.40;;;;;;5043341;28;20548;-78
2023/07/13 05:33:38;;;;;;;8.52;3.28;;;17.00;87.80;;;;;;5024146;28;20084;-79
2023/07/13 05:36:04;;;;;;;19.60;4.07;;;17.10;87.70;;;;;;5015990;28;20417;-78
2023/07/13 05:38:30;;;;;;;10.73;4.22;;;17.10;87.30;;;;;;4984559;28;20038;-78
2023/07/13 05:40:57;;;;;;;8.23;2.50;;;17.20;87.00;;;;;;5017731;28;20049;-79
2023/07/13 05:43:23;;;;;;;9.10;3.53;;;17.40;86.40;;;;;;5040046;28;20560;-81
2023/07/13 05:45:49;;;;;;;14.70;2.55;;;17.40;86.20;;;;;;5028004;28;20041;-80
2023/07/13 05:48:15;;;;;;;6.63;2.72;;;17.40;85.80;;;;;;5018177;28;20120;-78
2023/07/13 05:50:41;;;;;;;10.48;2.85;;;17.50;85.40;;;;;;5023224;28;20033;-78
2023/07/13 05:53:07;;;;;;;6.38;2.13;;;17.50;85.10;;;;;;5019048;28;20048;-78
2023/07/13 05:55:33;;;;;;;6.07;2.70;;;17.60;84.30;;;;;;5035352;28;20045;-77
2023/07/13 05:58:00;;;;;;;7.05;2.40;;;17.80;84.00;;;;;;5032180;28;20041;-76
2023/07/13 06:00:26;;;;;;;9.15;2.30;;;17.90;83.20;;;;;;5040812;28;20067;-78
2023/07/13 06:02:52;;;;;;;5.47;2.10;;;17.90;82.90;;;;;;5024863;28;20120;-78
2023/07/13 06:05:18;;;;;;;7.57;2.40;;;18.00;82.40;;;;;;5013740;28;20042;-77
2023/07/13 06:07:44;;;;;;;7.45;2.40;;;18.00;82.20;;;;;;5039850;28;20033;-76
2023/07/13 06:10:10;;;;;;;7.88;2.20;;;18.00;81.70;;;;;;5051992;28;20432;-77
2023/07/13 06:12:35;;;;;;;5.55;2.40;;;18.00;81.60;;;;;;5018538;28;20563;-78
2023/07/13 06:15:02;;;;;;;6.47;2.50;;;18.10;81.40;;;;;;5051248;28;20067;-77
2023/07/13 06:17:28;;;;;;;7.32;2.25;;;18.20;81.50;;;;;;5035117;28;20055;-79
2023/07/13 06:19:53;;;;;;;8.13;2.72;;;18.30;81.10;;;;;;5051607;28;20043;-78
2023/07/13 06:22:19;;;;;;;5.03;2.03;;;18.30;81.10;;;;;;5051881;28;20080;-79
2023/07/13 06:24:45;;;;;;;9.70;2.30;;;18.40;80.60;;;;;;5018952;28;20055;-79
2023/07/13 06:27:10;;;;;;;6.05;2.25;;;18.50;80.20;;;;;;5018483;28;20044;-79
2023/07/13 06:29:36;;;;;;;6.45;2.40;;;18.50;79.80;;;;;;5035099;28;20047;-76
2023/07/13 06:32:02;;;;;;;8.55;2.38;;;18.50;79.60;;;;;;5035184;28;20045;-76
2023/07/13 06:34:28;;;;;;;5.70;2.28;;;18.60;78.90;;;;;;5034807;28;20052;-77
2023/07/13 06:36:53;;;;;;;6.05;1.90;;;18.60;78.80;;;;;;5018624;28;20033;-75
2023/07/13 06:39:19;;;;;;;5.80;1.60;;;18.70;78.40;;;;;;5051397;28;20523;-76
2023/07/13 06:41:45;;;;;;;5.85;2.58;;;18.70;77.40;;;;;;5035079;28;20045;-77
2023/07/13 06:44:10;;;;;;;6.22;1.67;;;18.80;76.90;;;;;;5018435;28;20473;-75
2023/07/13 06:46:36;;;;;;;5.07;1.90;;;18.80;75.80;;;;;;5034668;28;20409;-76
2023/07/13 06:49:02;;;;;;;6.15;1.95;;;18.90;75.60;;;;;;5034659;28;20044;-77
2023/07/13 06:51:27;;;;;;;4.97;1.75;;;18.90;75.60;;;;;;5018337;28;20048;-76
2023/07/13 06:53:54;;;;;;;3.75;1.73;;;19.00;75.00;;;;;;5034725;28;20044;-77
2023/07/13 06:56:20;;;;;;;6.25;2.10;;;19.00;74.30;;;;;;5034683;28;20048;-77
2023/07/13 06:58:45;;;;;;;7.40;2.08;;;19.00;74.20;;;;;;5018287;28;20037;-78
2023/07/13 07:01:11;;;;;;;7.38;2.05;;;19.00;74.10;;;;;;5034634;28;20128;-77
2023/07/13 07:03:37;;;;;;;3.90;1.90;;;19.00;74.20;;;;;;5034641;28;20138;-77
2023/07/13 07:06:18;;;;;;;3.15;1.40;;;19.00;73.20;;;;;;5034511;28;20116;-78
2023/07/13 07:08:45;;;;;;;10.75;1.85;;;19.10;72.80;;;;;;5034474;28;20489;-77
2023/07/13 07:11:13;;;;;;;6.10;1.90;;;19.10;72.60;;;;;;5051309;28;20048;-77
2023/07/13 07:13:39;;;;;;;6.05;1.70;;;19.10;72.70;;;;;;5034845;28;20246;-78
2023/07/13 07:16:05;;;;;;;9.45;2.15;;;19.30;72.20;;;;;;5018315;28;20564;-77
2023/07/13 07:18:30;;;;;;;4.47;1.63;;;19.20;71.90;;;;;;5053233;28;20393;-77
2023/07/13 07:20:56;;;;;;;3.78;1.40;;;19.20;72.00;;;;;;5038081;28;20048;-76
2023/07/13 07:23:22;;;;;;;4.72;1.92;;;19.10;72.90;;;;;;5038285;28;20076;-78
2023/07/13 07:25:48;;;;;;;3.83;1.50;;;19.10;73.40;;;;;;5005663;28;20041;-79
2023/07/13 07:28:19;;;;;;;5.78;1.90;;;19.10;73.20;;;;;;5037982;28;20509;-77
2023/07/13 07:30:45;;;;;;;3.83;1.65;;;18.90;73.90;;;;;;5054721;28;20489;-76
2023/07/13 07:33:12;;;;;;;5.55;2.60;;;18.90;74.50;;;;;;5037930;28;20044;-76
2023/07/13 07:35:37;;;;;;;8.45;2.53;;;18.90;75.10;;;;;;5054416;28;20055;-79
2023/07/13 07:38:03;;;;;;;7.07;2.25;;;18.90;75.50;;;;;;5038029;28;20135;-79
2023/07/13 07:40:29;;;;;;;6.50;2.03;;;18.90;76.00;;;;;;5037867;28;20485;-79
2023/07/13 07:42:55;;;;;;;5.53;2.33;;;19.00;76.50;;;;;;5054546;28;20037;-78
2023/07/13 07:45:21;;;;;;;6.10;2.30;;;19.10;76.90;;;;;;5054171;28;20048;-77
2023/07/13 07:47:47;;;;;;;13.00;3.53;;;19.20;77.40;;;;;;5037958;28;20374;-78
2023/07/13 07:50:13;;;;;;;6.07;1.73;;;19.20;77.70;;;;;;5037975;28;20044;-78
2023/07/13 07:52:39;;;;;;;5.55;2.08;;;19.30;77.10;;;;;;5054357;28;20045;-79
2023/07/13 07:55:06;;;;;;;6.28;2.00;;;19.40;76.10;;;;;;5021469;28;20386;-78
2023/07/13 07:57:32;;;;;;;3.45;1.77;;;19.50;75.30;;;;;;5021103;28;20037;-77
2023/07/13 07:59:58;;;;;;;5.03;1.70;;;19.70;74.60;;;;;;5021281;28;20094;-79
2023/07/13 08:02:27;;;;;;;8.13;2.33;;;19.90;73.80;;;;;;5037441;28;20045;-78
2023/07/13 08:04:55;;;;;;;8.38;2.15;;;19.90;72.40;;;;;;5037391;28;20083;-78
2023/07/13 08:07:20;;;;;;;5.95;2.28;;;19.90;72.90;;;;;;5004952;28;20040;-78
2023/07/13 08:09:46;;;;;;;3.45;1.63;;;20.00;72.40;;;;;;5020921;28;20123;-77
2023/07/13 08:12:12;;;;;;;5.95;1.60;;;20.10;70.80;;;;;;5037614;28;20488;-78
2023/07/13 08:14:38;;;;;;;4.25;1.70;;;20.10;69.80;;;;;;5021086;28;20064;-78
2023/07/13 08:17:05;;;;;;;7.03;1.58;;;20.10;68.40;;;;;;5021161;28;20080;-79
2023/07/13 08:19:30;;;;;;;5.00;1.80;;;20.20;67.40;;;;;;5021300;28;20439;-78
2023/07/13 08:21:56;;;;;;;8.52;1.95;;;20.30;68.70;;;;;;5051604;28;20051;-77
2023/07/13 08:24:23;;;;;;;5.57;1.90;;;20.40;69.40;;;;;;5003704;28;20034;-78
2023/07/13 08:26:50;;;;;;;5.55;2.05;;;20.40;69.30;;;;;;5033299;28;20097;-78
2023/07/13 08:29:16;;;;;;;6.53;2.30;;;20.50;67.80;;;;;;5053503;28;20056;-78
2023/07/13 08:31:41;;;;;;;4.03;1.67;;;20.40;67.60;;;;;;5006556;28;20393;-79
2023/07/13 08:34:07;;;;;;;5.38;1.55;;;20.40;67.10;;;;;;5038787;28;20552;-77
2023/07/13 08:36:33;;;;;;;6.22;1.52;;;20.40;66.80;;;;;;5054054;28;20055;-77
2023/07/13 08:38:58;;;;;;;4.70;1.38;;;20.20;67.60;;;;;;5037034;28;20041;-78
2023/07/13 08:41:24;;;;;;;5.15;2.40;;;20.30;66.10;;;;;;5020900;28;20048;-77
2023/07/13 08:43:59;;;;;;;2.80;1.70;;;20.40;66.50;;;;;;5037294;28;20500;-79
2023/07/13 08:46:36;;;;;;;3.08;1.67;;;20.50;65.50;;;;;;5037113;28;20044;-79
2023/07/13 08:49:17;;;;;;;3.47;1.75;;;20.70;65.20;;;;;;5037860;28;20116;-78
2023/07/13 08:51:48;;;;;;;2.45;1.05;;;20.90;65.70;;;;;;5040679;28;20040;-79
2023/07/13 08:54:28;;;;;;;4.88;1.60;;;20.90;63.40;;;;;;5038771;28;20041;-78
2023/07/13 08:56:54;;;;;;;3.42;1.45;;;21.00;62.60;;;;;;5053406;28;20041;-79
2023/07/13 08:59:25;;;;;;;4.50;1.00;;;21.00;62.80;;;;;;5054107;28;20037;-78
2023/07/13 09:02:16;;;;;;;5.00;1.25;;;21.00;61.80;;;;;;5053251;28;20045;-78
2023/07/13 09:05:04;;;;;;;7.18;1.55;;;21.10;62.70;;;;;;5053309;28;20512;-79
2023/07/13 09:07:48;;;;;;;4.45;1.45;;;21.10;63.50;;;;;;5052937;28;20126;-80
2023/07/13 09:10:20;;;;;;;1.85;1.10;;;21.20;62.90;;;;;;5053224;28;20095;-78
2023/07/13 09:13:08;;;;;;;2.33;1.20;;;21.30;63.50;;;;;;5036097;28;20549;-79
2023/07/13 09:15:44;;;;;;;2.50;1.33;;;21.30;61.90;;;;;;5036228;28;20436;-78
2023/07/13 09:18:28;;;;;;;4.38;1.55;;;21.20;62.30;;;;;;5052776;28;20489;-80
2023/07/13 09:21:02;;;;;;;4.50;1.27;;;21.10;62.70;;;;;;5052705;28;20040;-80
2023/07/13 09:23:30;;;;;;;4.65;1.80;;;21.10;63.70;;;;;;5052671;28;20044;-80
2023/07/13 09:26:17;;;;;;;3.40;1.05;;;21.10;64.30;;;;;;5036256;28;20072;-79
2023/07/13 09:28:46;;;;;;;3.60;1.50;;;21.20;64.00;;;;;;5052743;28;20052;-80
2023/07/13 09:31:24;;;;;;;4.05;1.45;;;21.40;64.20;;;;;;5052776;28;20134;-80
2023/07/13 09:33:50;;;;;;;3.60;1.10;;;21.50;64.30;;;;;;5052615;28;20045;-80
2023/07/13 09:36:29;;;;;;;4.15;1.02;;;21.20;62.50;;;;;;5019343;28;20041;-80
2023/07/13 09:39:10;;;;;;;2.08;0.90;;;21.20;62.40;;;;;;5052830;28;20068;-79
2023/07/13 09:41:55;;;;;;;2.95;0.93;;;21.30;63.10;;;;;;5051992;28;20447;-81
2023/07/13 09:44:32;;;;;;;1.30;0.95;;;21.40;61.70;;;;;;5052431;28;20501;-80
2023/07/13 09:46:58;;;;;;;3.20;0.90;;;21.40;61.10;;;;;;5035722;28;20056;-81
2023/07/13 09:49:29;;;;;;;6.25;1.35;;;21.50;60.80;;;;;;5035866;28;20459;-79
2023/07/13 09:52:01;;;;;;;2.65;1.20;;;21.50;60.50;;;;;;5052043;28;20041;-80
2023/07/13 09:54:28;;;;;;;4.93;1.02;;;21.60;60.10;;;;;;5035503;28;20170;-80
2023/07/13 09:56:58;;;;;;;6.38;1.60;;;21.60;60.60;;;;;;5035359;28;20124;-81
2023/07/13 09:59:39;;;;;;;3.05;1.10;;;21.50;59.80;;;;;;5052029;28;20044;-81
2023/07/13 10:02:33;;;;;;;3.47;1.20;;;21.50;60.10;;;;;;5052166;28;20055;-79
2023/07/13 10:05:07;;;;;;;3.72;1.35;;;21.70;59.90;;;;;;5052152;28;20037;-80
2023/07/13 10:07:39;;;;;;;4.15;1.38;;;21.80;60.00;;;;;;5052013;28;20482;-81
2023/07/13 10:10:17;;;;;;;2.85;1.27;;;21.70;60.10;;;;;;5035453;28;20040;-81
2023/07/13 10:12:44;;;;;;;4.32;1.25;;;21.80;60.20;;;;;;5052670;28;20393;-82
2023/07/13 10:15:17;;;;;;;5.03;1.75;;;21.90;61.10;;;;;;5035240;28;20518;-81
2023/07/13 10:17:44;;;;;;;5.25;1.58;;;21.90;60.70;;;;;;5052378;28;20158;-83
2023/07/13 10:20:12;;;;;;;4.72;1.60;;;21.70;61.40;;;;;;5035642;28;20133;-81
2023/07/13 10:22:56;;;;;;;5.82;2.00;;;21.60;62.10;;;;;;5035334;28;20088;-82
2023/07/13 10:25:25;;;;;;;4.00;1.40;;;21.70;63.10;;;;;;5035198;28;20103;-81
2023/07/13 10:27:56;;;;;;;4.18;2.00;;;21.80;63.20;;;;;;5051980;28;20048;-81
2023/07/13 10:30:29;;;;;;;4.38;1.88;;;21.90;62.60;;;;;;5052897;28;20048;-80
2023/07/13 10:32:59;;;;;;;7.45;1.95;;;22.00;61.70;;;;;;5036441;28;20104;-79
2023/07/13 10:35:28;;;;;;;4.72;2.40;;;22.30;61.90;;;;;;5036777;28;20080;-81
2023/07/13 10:38:13;;;;;;;4.65;2.20;;;22.40;62.30;;;;;;5037181;28;20037;-81
2023/07/13 10:41:04;;;;;;;3.45;1.60;;;22.60;61.10;;;;;;5035898;28;20089;-80
2023/07/13 10:43:38;;;;;;;4.47;1.95;;;22.60;60.60;;;;;;5050816;28;20049;-82
2023/07/13 10:46:07;;;;;;;2.92;1.45;;;22.50;58.80;;;;;;5040360;28;20067;-82
2023/07/13 10:48:36;;;;;;;3.83;1.30;;;22.40;56.80;;;;;;5057032;28;20076;-81
2023/07/13 10:51:06;;;;;;;5.28;1.88;;;22.50;56.50;;;;;;5019487;28;20068;-80
2023/07/13 10:53:35;;;;;;;2.33;1.20;;;22.50;56.60;;;;;;5064239;28;20048;-81
2023/07/13 10:56:16;;;;;;;3.65;1.33;;;22.60;53.80;;;;;;5058783;28;20069;-81
2023/07/13 10:58:43;;;;;;;2.60;1.33;;;22.70;55.60;;;;;;5060359;28;20101;-80
2023/07/13 11:01:10;;;;;;;3.53;1.58;;;22.70;57.40;;;;;;5060921;28;20083;-82
2023/07/13 11:03:53;;;;;;;4.68;1.98;;;22.70;56.30;;;;;;5064471;28;20025;-81
2023/07/13 11:06:31;;;;;;;6.53;2.60;;;22.60;56.90;;;;;;5081506;28;20025;-81
2023/07/13 11:08:58;;;;;;;3.45;1.50;;;22.80;58.30;;;;;;5064762;28;20044;-81
2023/07/13 11:11:24;;;;;;;3.45;1.40;;;22.90;56.90;;;;;;5064491;28;20028;-80
2023/07/13 11:13:49;;;;;;;4.60;1.52;;;22.80;56.30;;;;;;5064507;28;20033;-81
2023/07/13 11:16:18;;;;;;;5.47;1.50;;;22.70;56.00;;;;;;5064619;28;20048;-82
2023/07/13 11:19:26;;;;;;;5.72;2.17;;;22.80;56.80;;;;;;5081081;28;20061;-81
2023/07/13 11:22:09;;;;;;;3.35;1.42;;;22.80;55.60;;;;;;5060804;28;20044;-83
2023/07/13 11:24:56;;;;;;;3.97;1.55;;;22.70;54.30;;;;;;5039034;28;20037;-81
2023/07/13 11:27:37;;;;;;;4.10;1.52;;;22.60;56.20;;;;;;5039494;28;20045;-82
2023/07/13 11:30:30;;;;;;;5.13;1.92;;;22.70;56.10;;;;;;5061046;28;20052;-81
2023/07/13 11:33:07;;;;;;;4.10;1.73;;;22.90;57.20;;;;;;5079559;28;20037;-83
2023/07/13 11:35:36;;;;;;;5.90;1.63;;;22.90;56.20;;;;;;5070014;28;20044;-81
2023/07/13 11:38:11;;;;;;;4.72;1.88;;;22.90;55.90;;;;;;5055276;28;20503;-81
2023/07/13 11:40:37;;;;;;;5.45;1.92;;;22.90;56.20;;;;;;5039001;28;20165;-82
2023/07/13 11:43:07;;;;;;;7.07;1.85;;;22.90;56.70;;;;;;5021926;28;20036;-81
2023/07/13 11:45:33;;;;;;;5.78;2.15;;;22.90;57.00;;;;;;5038303;28;20045;-80
2023/07/13 11:48:02;;;;;;;7.32;2.40;;;22.90;56.60;;;;;;5038482;28;20087;-83
2023/07/13 11:50:28;;;;;;;4.13;1.60;;;22.90;57.30;;;;;;5055291;28;20051;-83
2023/07/13 11:52:55;;;;;;;19.60;4.00;;;22.90;56.40;;;;;;5024097;28;20033;-81
2023/07/13 11:55:24;;;;;;;4.82;2.00;;;22.80;56.30;;;;;;5023069;28;20047;-82
2023/07/13 11:57:56;;;;;;;8.48;2.15;;;22.80;57.30;;;;;;5041516;28;20083;-81
2023/07/13 12:00:26;;;;;;;5.85;1.60;;;22.80;56.90;;;;;;5059535;28;20036;-83
2023/07/13 12:02:55;;;;;;;8.70;2.88;;;22.80;57.50;;;;;;5039603;28;20047;-83
2023/07/13 12:05:22;;;;;;;6.38;2.00;;;23.10;57.60;;;;;;5039585;28;20045;-83
2023/07/13 12:07:49;;;;;;;3.63;1.40;;;23.00;54.80;;;;;;5021317;28;20171;-83
2023/07/13 12:10:22;;;;;;;5.72;1.60;;;23.00;54.40;;;;;;5037969;28;20037;-81
2023/07/13 12:12:53;;;;;;;3.58;1.40;;;23.10;55.50;;;;;;5029763;28;20045;-82
2023/07/13 12:15:22;;;;;;;3.55;1.17;;;23.20;54.60;;;;;;5036288;28;20044;-82
2023/07/13 12:17:48;;;;;;;4.75;1.80;;;23.20;54.40;;;;;;5031873;28;20049;-81
2023/07/13 12:20:26;;;;;;;5.15;1.55;;;23.00;53.60;;;;;;5017732;28;20033;-82
2023/07/13 12:22:53;;;;;;;4.53;1.90;;;23.10;55.50;;;;;;5017388;28;20041;-82
2023/07/13 12:25:20;;;;;;;5.35;2.15;;;23.20;55.70;;;;;;5001067;28;20084;-83
2023/07/13 12:27:50;;;;;;;2.97;1.48;;;23.10;54.60;;;;;;5017341;28;20053;-81
2023/07/13 12:30:35;;;;;;;3.60;1.85;;;23.20;55.10;;;;;;5031857;28;20094;-82
2023/07/13 12:33:24;;;;;;;4.60;2.17;;;23.40;55.90;;;;;;5017253;28;20050;-83
2023/07/13 12:35:53;;;;;;;3.88;1.65;;;23.40;55.20;;;;;;5017481;28;20053;-82
2023/07/13 12:38:22;;;;;;;5.85;2.55;;;23.40;56.20;;;;;;5017247;28;20080;-83
2023/07/13 12:40:51;;;;;;;5.68;1.90;;;23.50;56.90;;;;;;5017837;28;20528;-83
2023/07/13 12:43:19;;;;;;;6.03;2.05;;;23.70;56.80;;;;;;5017031;28;20098;-82
2023/07/13 12:46:15;;;;;;;4.60;1.70;;;23.60;56.60;;;;;;5001643;28;20041;-83
2023/07/13 12:48:42;;;;;;;6.68;2.13;;;23.60;56.50;;;;;;5017023;28;20092;-81
2023/07/13 12:51:13;;;;;;;7.03;2.30;;;23.70;56.70;;;;;;5001020;28;20262;-81
2023/07/13 12:53:42;;;;;;;5.35;2.08;;;23.80;56.60;;;;;;5000622;28;20049;-82